Colorado Springs, CO (80924)

3:14 AM MDT on October 02, 2014 (GMT -0600)
Charleston Place, Briargate, CO | Change Station
CLOSE
Current Station
Personal Weather Station
Location: Colorado Springs, CO
Elevation: 6870 ft
Nearby Weather Stations

Elev 6870 ft 38.95 °N, 104.76 °W | Updated 10 seconds ago

Partly Cloudy
Partly Cloudy
35.6 °F
Feels Like 33 °F
N
3.5
Wind Variable Wind from SSW
Gusts 3.5 mph

Today
High -- | Low -- °F
--% Chance of Precip.
Yesterday
High -- | Low -- °F
Precip. -- in
6:55 AM 6:40 PM
First Quarter, 56% visible
Pressure 29.97 in
Visibility 10.0 miles
Clouds Few 7000 ft
Scattered Clouds 11000 ft
Windchill 33 °F
Dew Point 33 °F
Humidity 89%
Rainfall 0.00 in
Snow Depth Not available.
UV 0 out of 12
Pollen 4.10 out of 12
PM2.5 Good
Flu Activity Not available.
METAR KAFF 020858Z AUTO 35013KT 10SM FEW070 SCT110 03/01 A3009 RMK AO2 RAE0807DZB0807E0810 SLP148 P0000 60000 T00320006 50003

More Conditions Fewer Conditions

Pressure 29.97 in
Visibility 10.0 miles
Clouds Few 7000 ft
Scattered Clouds 11000 ft
Windchill 33 °F
Dew Point 33 °F
Humidity 89%
Rainfall 0.00 in
Snow Depth Not available.
UV 0 out of 12
Pollen 4.10 out of 12
PM2.5 Good
Flu Activity Not available.
METAR KAFF 020858Z AUTO 35013KT 10SM FEW070 SCT110 03/01 A3009 RMK AO2 RAE0807DZB0807E0810 SLP148 P0000 60000 T00320006 50003

More Conditions Fewer Conditions

10-Day Weather Forecast

Almanac

Astronomy

Oct. 02, 2014 Rise Set
Actual Time 6:55 AM MDT 6:40 PM MDT
Civil Twilight 6:29 AM MDT 7:06 PM MDT
Nautical Twilight 5:58 AM MDT 7:37 PM MDT
Astronomical Twilight 5:27 AM MDT 8:08 PM MDT
Moon 2:45 PM MDT 12:18 AM MDT
Length of Visible Light 12h 37m
Length of Day
11h 44m
Tomorrow will be 2m 31s shorter.
First Quarter, 56% of the Moon is Illuminated
Today
First Quarter
Oct 8
Full
Oct 15
Last Quarter
Oct 23
New
Oct 30
First Quarter

Today's Extremes

State Highs State Lows

Community

WunderPhotos

Upload Photos

1,758,202 photos uploaded!

WunderBlogs® & News

By Dr. Jeff Masters
Director of Meteorology, Weather Underground
By Kari Strenfel
Meteorologist, Weather Underground
By Christopher C. Burt
Weather Historian, Weather Underground
October 2, 2014
October 2, 2014
October 2, 2014

Nearby

Air Quality

  Air Quality AQ Index Pollutant
Yesterday Good
OZONE
Yesterday Good
PM2.5
Current Good
PM2.5
Thursday Good
PM2.5
Thursday Good
OZONE

Snow Depth

Station Depth Elevation
Beartown 0 in 11600 ft
Red Mountain Pass 1 in 11150 ft
Apishapa 1 in 10000 ft
Medano Pass 1 in 9620 ft
Bear RIver 0 in 9080 ft

Earthquake Activity

City Distance Mag. Time & Date
Trinidad, Colorado 132 miles 2.9 3:55 AM MDT
2014-09-30
Minimum magnitude displayed is 2.5.

Coastal Water Temperatures

Place Temperature
No Stations Reporting

Nearby Weather Stations